createdAt,value
2019-05-13T00:03:15.759Z,6.77
2019-05-13T00:06:50.233Z,6.57
2019-05-13T00:10:04.097Z,3.97
2019-05-13T00:13:26.035Z,10.80
2019-05-13T00:16:48.131Z,7.97
2019-05-13T00:20:10.892Z,5.03
2019-05-13T00:23:33.959Z,7.43
2019-05-13T00:26:56.837Z,4.87
2019-05-13T00:30:19.439Z,5.40
2019-05-13T00:33:44.268Z,8.10
2019-05-13T00:37:11.139Z,7.97
2019-05-13T00:40:29.758Z,8.13
2019-05-13T00:43:53.225Z,7.67
2019-05-13T00:47:16.071Z,5.63
2019-05-13T00:50:38.103Z,5.37
2019-05-13T00:54:00.467Z,4.07
2019-05-13T00:57:23.823Z,6.53
2019-05-13T01:00:46.554Z,6.10
2019-05-13T01:04:08.951Z,7.20
2019-05-13T01:07:34.019Z,6.83
2019-05-13T01:10:55.606Z,8.53
2019-05-13T01:14:18.181Z,9.07
2019-05-13T01:17:40.924Z,7.23
2019-05-13T01:21:04.381Z,8.83
2019-05-13T01:24:27.334Z,5.67
2019-05-13T01:27:49.730Z,6.07
2019-05-13T01:31:13.240Z,11.03
2019-05-13T01:34:35.472Z,10.07
2019-05-13T01:37:57.602Z,7.20
2019-05-13T01:41:20.289Z,6.67
2019-05-13T01:44:43.779Z,6.97
2019-05-13T01:48:07.773Z,6.97
2019-05-13T01:51:30.208Z,6.17
2019-05-13T01:54:54.373Z,9.30
2019-05-13T01:58:16.654Z,6.63
2019-05-13T02:01:39.379Z,6.63
2019-05-13T02:05:03.953Z,11.07
2019-05-13T02:08:26.212Z,15.60
2019-05-13T02:11:48.597Z,4.10
2019-05-13T02:15:11.158Z,8.33
2019-05-13T02:18:34.315Z,7.90
2019-05-13T02:21:56.884Z,8.73
2019-05-13T02:25:19.291Z,8.77
2019-05-13T02:28:43.640Z,12.03
2019-05-13T02:32:05.681Z,8.07
2019-05-13T02:35:28.334Z,4.53
2019-05-13T02:38:53.201Z,7.47
2019-05-13T02:42:15.032Z,5.77
2019-05-13T02:45:38.139Z,10.43
2019-05-13T02:49:03.199Z,9.80
2019-05-13T02:52:24.412Z,9.33
2019-05-13T02:55:46.996Z,10.77
2019-05-13T02:59:13.013Z,6.33
2019-05-13T03:02:33.572Z,11.37
2019-05-13T03:05:56.116Z,4.73
2019-05-13T03:09:18.617Z,8.13
2019-05-13T03:12:42.395Z,10.23
2019-05-13T03:16:27.809Z,11.23
2019-05-13T03:19:52.996Z,8.23
2019-05-13T03:23:14.029Z,7.80
2019-05-13T03:26:36.182Z,8.50
2019-05-13T03:29:58.803Z,9.07
2019-05-13T03:33:27.337Z,9.67
2019-05-13T03:36:46.465Z,11.03
2019-05-13T03:40:08.844Z,7.30
2019-05-13T03:43:33.138Z,9.33
2019-05-13T03:46:57.804Z,8.50
2019-05-13T03:50:22.658Z,8.90
2019-05-13T03:53:44.490Z,10.43
2019-05-13T03:57:07.034Z,8.40
2019-05-13T04:00:32.073Z,13.77
2019-05-13T04:03:53.261Z,8.60
2019-05-13T04:07:15.684Z,8.50
2019-05-13T04:10:38.435Z,9.33
2019-05-13T04:14:03.262Z,13.57
2019-05-13T04:17:24.824Z,9.43
2019-05-13T04:20:52.986Z,11.33
2019-05-13T04:24:15.105Z,9.03
2019-05-13T04:27:37.610Z,10.43
2019-05-13T04:31:02.433Z,7.27
2019-05-13T04:34:24.294Z,14.77
2019-05-13T04:37:47.074Z,10.07
2019-05-13T04:41:12.012Z,7.80
2019-05-13T04:44:33.569Z,9.33
2019-05-13T04:47:56.079Z,9.27
2019-05-13T04:51:18.399Z,11.10
2019-05-13T04:54:43.620Z,9.83
2019-05-13T04:58:04.778Z,12.43
2019-05-13T05:01:40.057Z,13.20
2019-05-13T05:05:13.012Z,11.97
2019-05-13T05:08:57.021Z,11.60
2019-05-13T05:12:47.717Z,7.90
2019-05-13T05:16:44.744Z,9.07
2019-05-13T05:20:14.417Z,14.57
2019-05-13T05:24:22.212Z,12.17
2019-05-13T05:28:06.048Z,12.10
2019-05-13T05:31:38.203Z,11.77
2019-05-13T05:35:25.875Z,11.57
2019-05-13T05:39:12.280Z,13.70
2019-05-13T05:42:37.407Z,12.10
2019-05-13T05:46:02.425Z,13.33
2019-05-13T05:49:26.175Z,11.57
2019-05-13T05:52:51.338Z,15.10
2019-05-13T05:56:16.526Z,8.13
2019-05-13T05:59:39.431Z,11.23
2019-05-13T06:03:03.578Z,11.97
2019-05-13T06:06:27.056Z,10.77
2019-05-13T06:09:51.599Z,15.20
2019-05-13T06:13:14.808Z,14.80
2019-05-13T06:16:37.567Z,15.27
2019-05-13T06:20:03.215Z,10.67
2019-05-13T06:23:25.865Z,11.47
2019-05-13T06:26:48.258Z,12.83
2019-05-13T06:30:12.639Z,13.00
2019-05-13T06:33:34.918Z,8.90
2019-05-13T06:36:57.471Z,12.47
2019-05-13T06:40:21.440Z,12.93
2019-05-13T06:43:43.883Z,12.93
2019-05-13T06:47:06.541Z,9.57
2019-05-13T06:50:28.929Z,14.67
2019-05-13T06:53:51.823Z,10.53
2019-05-13T06:57:16.314Z,10.93
2019-05-13T07:00:38.931Z,12.03
2019-05-13T07:04:02.362Z,10.13
2019-05-13T07:07:24.747Z,19.00
2019-05-13T07:10:47.186Z,9.87
2019-05-13T07:14:11.990Z,12.07
2019-05-13T07:17:33.507Z,8.27
2019-05-13T07:20:56.159Z,9.13
2019-05-13T07:24:18.596Z,11.33
2019-05-13T07:27:42.381Z,13.23
2019-05-13T07:31:05.433Z,11.43
2019-05-13T07:34:27.665Z,9.73
2019-05-13T07:37:51.743Z,12.63
2019-05-13T07:41:14.539Z,13.72
2019-05-13T07:44:37.203Z,8.93
2019-05-13T07:48:01.438Z,8.48
2019-05-13T07:51:24.219Z,8.98
2019-05-13T07:54:46.730Z,10.40
2019-05-13T07:58:11.470Z,12.20
2019-05-13T08:01:33.461Z,7.70
2019-05-13T08:04:56.174Z,10.07
2019-05-13T08:08:18.270Z,7.77
2019-05-13T08:11:59.978Z,9.03
2019-05-13T08:15:06.087Z,9.07
2019-05-13T08:18:28.842Z,8.13
2019-05-13T08:21:51.450Z,8.53
2019-05-13T08:25:14.515Z,5.83
2019-05-13T08:28:52.698Z,6.93
2019-05-13T08:32:02.873Z,8.30
2019-05-13T08:35:24.761Z,6.17
2019-05-13T08:38:47.907Z,6.37
2019-05-13T08:42:16.110Z,6.87
2019-05-13T08:45:34.190Z,5.70
2019-05-13T08:48:56.635Z,2.73
2019-05-13T08:52:21.754Z,3.23
2019-05-13T08:55:43.459Z,6.37
2019-05-13T08:59:05.664Z,5.87
2019-05-13T09:04:42.190Z,6.53
2019-05-13T09:08:04.804Z,10.30
2019-05-13T09:11:27.494Z,9.80
2019-05-13T09:14:52.223Z,5.53
2019-05-13T09:18:14.252Z,5.83
2019-05-13T09:21:36.699Z,5.83
2019-05-13T09:25:01.887Z,6.63
2019-05-13T09:28:23.119Z,8.03
2019-05-13T09:31:45.334Z,7.37
2019-05-13T09:35:07.450Z,9.00
2019-05-13T09:38:32.383Z,6.03
2019-05-13T09:41:53.723Z,4.03
2019-05-13T09:45:16.459Z,5.70
2019-05-13T09:48:39.239Z,4.43
2019-05-13T09:52:01.793Z,4.50
2019-05-13T09:55:29.025Z,4.77
2019-05-13T09:58:51.180Z,7.03
2019-05-13T10:02:12.722Z,7.70
2019-05-13T10:05:35.272Z,5.57
2019-05-13T10:08:57.840Z,8.70
2019-05-13T10:12:23.827Z,3.87
2019-05-13T10:15:48.566Z,4.57
2019-05-13T10:19:08.418Z,5.83
2019-05-13T10:22:31.944Z,3.33
2019-05-13T10:25:58.001Z,7.37
2019-05-13T10:29:22.375Z,8.17
2019-05-13T10:32:44.956Z,5.83
2019-05-13T10:36:08.335Z,6.17
2019-05-13T10:39:30.700Z,5.97
2019-05-13T10:42:52.707Z,6.67
2019-05-13T10:46:15.097Z,8.40
2019-05-13T10:49:37.511Z,5.60
2019-05-13T10:53:02.553Z,7.23
2019-05-13T10:56:23.876Z,7.47
2019-05-13T10:59:45.944Z,4.50
2019-05-13T11:03:08.690Z,5.20
2019-05-13T11:06:34.516Z,3.43
2019-05-13T11:09:56.866Z,7.87
2019-05-13T11:13:22.600Z,6.33
2019-05-13T11:16:43.527Z,5.90
2019-05-13T11:20:06.181Z,5.63
2019-05-13T11:23:28.556Z,5.87
2019-05-13T11:26:53.094Z,9.60
2019-05-13T11:30:14.748Z,4.40
2019-05-13T11:33:37.374Z,4.63
2019-05-13T11:37:03.303Z,5.20
2019-05-13T11:40:23.568Z,6.20
2019-05-13T11:43:45.970Z,4.43
2019-05-13T11:47:08.392Z,5.20
2019-05-13T11:50:30.665Z,5.67
2019-05-13T11:53:53.085Z,6.37
2019-05-13T11:57:15.796Z,7.33
2019-05-13T12:00:53.631Z,5.47
2019-05-13T12:04:16.255Z,4.60
2019-05-13T12:07:40.221Z,5.07
2019-05-13T12:11:05.653Z,4.23
2019-05-13T12:14:56.930Z,5.13
2019-05-13T12:17:52.922Z,5.37
2019-05-13T12:21:15.713Z,4.13
2019-05-13T12:24:37.857Z,5.50
2019-05-13T12:28:03.331Z,3.50
2019-05-13T12:31:24.614Z,4.30
2019-05-13T12:34:47.423Z,4.53
2019-05-13T12:38:13.235Z,6.57
2019-05-13T12:41:34.621Z,2.70
2019-05-13T12:48:08.174Z,7.10
2019-05-13T12:51:32.574Z,5.00
2019-05-13T12:54:55.027Z,4.97
2019-05-13T12:58:17.392Z,3.33
2019-05-13T13:01:39.883Z,3.97
2019-05-13T13:05:18.438Z,2.87
2019-05-13T13:08:40.023Z,3.97
2019-05-13T13:11:53.968Z,3.03
2019-05-13T13:15:35.909Z,5.17
2019-05-13T13:18:39.127Z,4.50
2019-05-13T13:22:06.851Z,5.43
2019-05-13T13:25:26.582Z,4.40
2019-05-13T13:28:48.940Z,6.50
2019-05-13T13:32:13.407Z,5.00
2019-05-13T13:35:35.116Z,2.37
2019-05-13T13:38:57.491Z,4.00
2019-05-13T13:42:19.803Z,4.67
2019-05-13T13:46:06.549Z,4.43
2019-05-13T13:49:06.290Z,6.20
2019-05-13T17:51:51.833Z,4.45
2019-05-13T17:55:14.636Z,2.77
2019-05-13T17:58:37.308Z,2.87
2019-05-13T18:02:02.323Z,3.20
2019-05-13T18:05:24.284Z,3.70
2019-05-13T18:08:46.859Z,4.20
2019-05-13T18:12:11.571Z,3.50
2019-05-13T18:15:34.293Z,4.40
2019-05-13T18:18:57.048Z,4.30
2019-05-13T18:22:19.759Z,2.40
2019-05-13T18:25:42.329Z,2.00
2019-05-13T18:29:04.831Z,3.37
2019-05-13T18:32:27.608Z,4.30
2019-05-13T18:35:52.422Z,2.63
2019-05-13T18:39:14.143Z,2.10
2019-05-13T18:42:36.553Z,4.37
2019-05-13T18:46:01.791Z,4.77
2019-05-13T18:49:22.994Z,3.00
2019-05-13T18:52:45.208Z,3.13
2019-05-13T18:56:07.680Z,5.20
2019-05-13T18:59:32.004Z,3.07
2019-05-13T19:02:54.076Z,4.07
2019-05-13T19:06:16.487Z,1.50
2019-05-13T19:09:38.499Z,3.07
2019-05-13T19:13:01.706Z,6.47
2019-05-13T19:16:24.391Z,9.70
2019-05-13T19:19:46.946Z,2.93
2019-05-13T19:23:11.645Z,2.30
2019-05-13T19:26:33.722Z,4.50
2019-05-13T19:29:56.507Z,3.23
2019-05-13T19:33:19.437Z,2.93
2019-05-13T19:36:42.408Z,3.50
2019-05-13T19:40:05.444Z,3.90
2019-05-13T19:43:27.511Z,3.50
2019-05-13T19:46:52.217Z,3.70
2019-05-13T19:50:14.319Z,4.17
2019-05-13T19:53:36.763Z,2.97
2019-05-13T19:57:01.224Z,5.33
2019-05-13T20:00:23.476Z,4.57
2019-05-13T20:03:46.171Z,5.57
2019-05-13T20:07:08.671Z,5.03
2019-05-13T20:10:31.429Z,4.40
2019-05-13T20:13:54.275Z,4.07
2019-05-13T20:17:16.871Z,5.00
2019-05-13T20:20:41.214Z,5.03
2019-05-13T20:24:03.614Z,3.93
2019-05-13T20:27:26.138Z,3.70
2019-05-13T20:30:48.460Z,3.63
2019-05-13T20:34:11.902Z,4.50
2019-05-13T20:37:34.648Z,3.97
2019-05-13T20:40:57.179Z,4.80
2019-05-13T20:44:21.983Z,2.70
2019-05-13T20:47:43.856Z,2.13
2019-05-13T20:51:06.359Z,4.03
2019-05-13T20:54:31.199Z,3.73
2019-05-13T20:57:53.258Z,3.93
2019-05-13T21:01:15.901Z,3.53
2019-05-13T21:04:38.422Z,3.30
2019-05-13T21:08:01.721Z,3.73
2019-05-13T21:11:24.149Z,3.10
2019-05-13T21:14:46.538Z,3.73
2019-05-13T21:18:11.362Z,3.13
2019-05-13T21:21:33.134Z,2.40
2019-05-13T21:24:55.689Z,2.60
2019-05-13T21:28:18.810Z,3.10
2019-05-13T21:31:41.586Z,3.23
2019-05-13T21:35:04.261Z,2.83
2019-05-13T21:38:26.531Z,2.80
2019-05-13T21:41:51.771Z,2.60
2019-05-13T21:45:13.362Z,3.43
2019-05-13T21:48:35.566Z,3.83
2019-05-13T21:51:58.423Z,4.67
2019-05-13T21:55:21.682Z,3.80
2019-05-13T21:58:44.466Z,3.50
2019-05-13T22:02:07.116Z,4.23
2019-05-13T22:05:31.362Z,3.93
2019-05-13T22:08:53.716Z,6.20
2019-05-13T22:12:16.724Z,3.23
2019-05-13T22:15:41.451Z,3.17
2019-05-13T22:19:03.201Z,5.50
2019-05-13T22:22:25.888Z,4.23
2019-05-13T22:25:48.199Z,3.63
2019-05-13T22:29:10.626Z,5.40
2019-05-13T22:32:33.354Z,3.17
2019-05-13T22:35:56.115Z,3.10
2019-05-13T22:39:18.478Z,3.67
2019-05-13T22:42:41.562Z,5.37
2019-05-13T22:46:04.174Z,4.37
2019-05-13T22:49:26.944Z,5.13
2019-05-13T22:52:49.276Z,5.67
2019-05-13T22:56:11.863Z,3.57
2019-05-13T22:59:34.010Z,4.23
2019-05-13T23:02:56.597Z,3.37
2019-05-13T23:06:21.453Z,4.07
2019-05-13T23:09:43.026Z,4.13
2019-05-13T23:13:05.418Z,9.07
2019-05-13T23:16:28.176Z,4.70
2019-05-13T23:19:52.254Z,4.23
2019-05-13T23:23:14.784Z,5.13
2019-05-13T23:26:37.292Z,3.90
2019-05-13T23:30:01.235Z,4.30
2019-05-13T23:33:24.245Z,4.67
2019-05-13T23:36:46.728Z,4.20
2019-05-13T23:40:11.697Z,4.10
2019-05-13T23:43:33.587Z,4.10
2019-05-13T23:46:55.987Z,3.57
2019-05-13T23:50:18.807Z,3.10
2019-05-13T23:53:41.663Z,6.90
2019-05-13T23:57:04.226Z,3.67
